createdAt,value
2023-05-19T00:00:25.425Z,114.73
2023-05-19T00:01:25.428Z,118.97
2023-05-19T00:02:25.548Z,119.33
2023-05-19T00:03:25.633Z,121.68
2023-05-19T00:04:25.601Z,116.64
2023-05-19T00:05:25.673Z,116.42
2023-05-19T00:06:25.714Z,122.98
2023-05-19T00:07:25.730Z,123.65
2023-05-19T00:08:25.803Z,125.78
2023-05-19T00:09:25.869Z,126.53
2023-05-19T00:10:25.914Z,119.28
2023-05-19T00:11:25.958Z,116.77
2023-05-19T00:12:26.009Z,122.25
2023-05-19T00:13:26.088Z,119.46
2023-05-19T00:14:26.088Z,121.76
2023-05-19T00:15:26.171Z,123.95
2023-05-19T00:16:26.290Z,124.09
2023-05-19T00:17:26.366Z,126.94
2023-05-19T00:18:26.316Z,121.43
2023-05-19T00:19:26.451Z,119.35
2023-05-19T00:20:26.459Z,119.05
2023-05-19T00:21:26.403Z,112.60
2023-05-19T00:22:26.482Z,117.00
2023-05-19T00:23:26.526Z,114.96
2023-05-19T00:24:26.612Z,112.94
2023-05-19T00:25:26.604Z,117.68
2023-05-19T00:26:26.654Z,114.13
2023-05-19T00:27:26.703Z,122.41
2023-05-19T00:28:26.779Z,126.74
2023-05-19T00:29:26.839Z,126.80
2023-05-19T00:30:26.853Z,124.65
2023-05-19T00:31:26.946Z,123.43
2023-05-19T00:32:27.019Z,123.49
2023-05-19T00:33:27.044Z,126.06
2023-05-19T00:34:27.084Z,130.01
2023-05-19T00:35:27.149Z,129.88
2023-05-19T00:36:27.191Z,122.23
2023-05-19T00:37:27.266Z,116.76
2023-05-19T00:38:27.276Z,121.57
2023-05-19T00:39:27.359Z,124.37
2023-05-19T00:40:27.412Z,127.53
2023-05-19T00:41:27.477Z,132.43
2023-05-19T00:42:27.519Z,125.87
2023-05-19T00:43:27.556Z,123.80
2023-05-19T00:44:27.620Z,121.98
2023-05-19T00:45:27.653Z,129.83
2023-05-19T00:46:27.714Z,128.89
2023-05-19T00:47:27.811Z,140.37
2023-05-19T00:48:27.800Z,144.32
2023-05-19T00:49:27.878Z,147.98
2023-05-19T00:50:27.964Z,149.82
2023-05-19T00:51:28.002Z,145.48
2023-05-19T00:52:28.030Z,142.64
2023-05-19T00:53:28.088Z,144.11
2023-05-19T00:54:28.194Z,144.62
2023-05-19T00:55:28.245Z,145.07
2023-05-19T00:56:28.257Z,143.36
2023-05-19T00:57:28.321Z,144.05
2023-05-19T00:58:28.336Z,140.69
2023-05-19T00:59:28.392Z,140.49
2023-05-19T01:00:28.485Z,144.03
2023-05-19T01:01:28.613Z,147.21
2023-05-19T01:02:28.677Z,142.13
2023-05-19T01:03:28.659Z,148.31
2023-05-19T01:04:28.684Z,145.14
2023-05-19T01:05:28.737Z,146.40
2023-05-19T01:06:28.801Z,144.62
2023-05-19T01:07:28.825Z,145.71
2023-05-19T01:08:28.917Z,148.93
2023-05-19T01:09:28.956Z,155.04
2023-05-19T01:10:29.025Z,153.54
2023-05-19T01:11:29.040Z,153.58
2023-05-19T01:12:29.089Z,152.44
2023-05-19T01:13:29.175Z,154.23
2023-05-19T01:14:29.222Z,154.79
2023-05-19T01:15:29.253Z,157.65
2023-05-19T01:16:29.393Z,153.96
2023-05-19T01:17:29.371Z,149.83
2023-05-19T01:18:29.393Z,152.03
2023-05-19T01:19:29.450Z,152.10
2023-05-19T01:20:29.575Z,157.00
2023-05-19T01:21:29.554Z,150.71
2023-05-19T01:22:29.615Z,156.24
2023-05-19T01:23:29.692Z,155.02
2023-05-19T01:24:29.730Z,152.40
2023-05-19T01:25:29.773Z,150.33
2023-05-19T01:26:29.824Z,153.11
2023-05-19T01:27:29.912Z,149.38
2023-05-19T01:28:29.961Z,151.65
2023-05-19T01:29:29.973Z,152.57
2023-05-19T01:30:30.222Z,154.09
2023-05-19T01:31:30.112Z,164.17
2023-05-19T01:32:30.169Z,169.26
2023-05-19T01:33:30.163Z,175.15
2023-05-19T01:34:30.228Z,185.03
2023-05-19T01:35:30.283Z,196.90
2023-05-19T01:36:30.434Z,193.52
2023-05-19T01:37:30.348Z,178.43
2023-05-19T01:38:30.438Z,187.88
2023-05-19T01:39:30.440Z,205.03
2023-05-19T01:40:30.604Z,217.11
2023-05-19T01:41:30.546Z,226.46
2023-05-19T01:42:30.562Z,233.49
2023-05-19T01:43:30.617Z,228.00
2023-05-19T01:44:30.685Z,237.86
2023-05-19T01:45:30.724Z,238.68
2023-05-19T01:46:30.842Z,233.07
2023-05-19T01:47:30.830Z,230.63
2023-05-19T01:48:30.866Z,227.12
2023-05-19T01:49:30.879Z,218.65
2023-05-19T01:50:31.057Z,219.94
2023-05-19T01:51:30.931Z,216.80
2023-05-19T01:52:30.968Z,213.54
2023-05-19T01:53:31.025Z,213.31
2023-05-19T01:54:31.033Z,209.77
2023-05-19T01:55:31.068Z,213.74
2023-05-19T01:56:31.085Z,216.26
2023-05-19T01:57:31.097Z,216.10
2023-05-19T01:58:31.132Z,212.30
2023-05-19T01:59:31.142Z,213.38
2023-05-19T02:00:31.379Z,213.23
2023-05-19T02:01:31.176Z,212.30
2023-05-19T02:02:31.168Z,216.17
2023-05-19T02:03:31.189Z,215.94
2023-05-19T02:04:31.283Z,217.92
2023-05-19T02:05:31.199Z,226.76
2023-05-19T02:06:31.224Z,220.95
2023-05-19T02:07:31.214Z,223.95
2023-05-19T02:08:31.240Z,225.92
2023-05-19T02:09:31.209Z,230.35
2023-05-19T02:10:31.448Z,227.71
2023-05-19T02:11:31.210Z,229.43
2023-05-19T02:12:31.222Z,222.67
2023-05-19T02:13:31.275Z,217.48
2023-05-19T02:14:31.270Z,221.50
2023-05-19T02:15:31.257Z,224.14
2023-05-19T02:16:31.261Z,223.81
2023-05-19T02:17:31.275Z,228.14
2023-05-19T02:18:31.249Z,232.33
2023-05-19T02:19:31.275Z,230.65
2023-05-19T02:20:31.491Z,230.90
2023-05-19T02:21:31.269Z,229.56
2023-05-19T02:22:31.259Z,228.12
2023-05-19T02:23:31.272Z,238.06
2023-05-19T02:24:31.296Z,237.05
2023-05-19T02:25:31.326Z,227.80
2023-05-19T02:26:31.281Z,233.12
2023-05-19T02:27:31.299Z,233.48
2023-05-19T02:28:31.322Z,236.75
2023-05-19T02:29:31.319Z,232.68
2023-05-19T02:30:31.473Z,237.04
2023-05-19T02:31:31.358Z,237.91
2023-05-19T02:32:31.394Z,240.58
2023-05-19T02:33:31.399Z,248.15
2023-05-19T02:34:31.409Z,240.56
2023-05-19T02:35:31.410Z,242.51
2023-05-19T02:36:31.454Z,247.63
2023-05-19T02:37:31.496Z,246.93
2023-05-19T02:38:31.490Z,247.51
2023-05-19T02:39:31.540Z,249.54
2023-05-19T02:40:31.779Z,248.67
2023-05-19T02:41:31.592Z,250.00
2023-05-19T02:42:31.660Z,248.87
2023-05-19T02:43:31.654Z,249.39
2023-05-19T02:44:31.658Z,247.98
2023-05-19T02:45:31.732Z,247.19
2023-05-19T02:46:31.778Z,247.83
2023-05-19T02:47:31.847Z,247.79
2023-05-19T02:48:31.871Z,248.15
2023-05-19T02:49:31.976Z,248.98
2023-05-19T02:50:32.155Z,245.13
2023-05-19T02:51:32.027Z,245.03
2023-05-19T02:52:32.053Z,248.72
2023-05-19T02:53:32.111Z,250.00
2023-05-19T02:54:32.163Z,247.05
2023-05-19T02:55:32.204Z,245.82
2023-05-19T02:56:32.223Z,248.39
2023-05-19T02:57:32.260Z,241.11
2023-05-19T02:58:32.309Z,249.55
2023-05-19T02:59:32.366Z,248.01
2023-05-19T03:00:32.767Z,244.42
2023-05-19T03:01:32.418Z,250.07
2023-05-19T03:02:32.540Z,242.52
2023-05-19T03:03:32.557Z,240.01
2023-05-19T03:04:32.532Z,242.91
2023-05-19T03:05:32.579Z,246.93
2023-05-19T03:06:32.633Z,245.27
2023-05-19T03:07:32.693Z,245.05
2023-05-19T03:08:32.727Z,244.89
2023-05-19T03:09:32.754Z,242.60
2023-05-19T03:10:32.972Z,246.39
2023-05-19T03:11:32.877Z,246.33
2023-05-19T03:12:32.959Z,243.98
2023-05-19T03:13:33.007Z,249.29
2023-05-19T03:14:33.094Z,247.38
2023-05-19T03:15:33.162Z,248.14
2023-05-19T03:16:33.265Z,247.71
2023-05-19T03:17:33.372Z,244.95
2023-05-19T03:18:33.297Z,247.20
2023-05-19T03:19:33.372Z,246.29
2023-05-19T03:20:33.651Z,245.60
2023-05-19T03:21:33.503Z,245.46
2023-05-19T03:22:33.579Z,243.73
2023-05-19T03:23:33.667Z,243.94
2023-05-19T03:24:33.720Z,245.41
2023-05-19T03:25:33.752Z,245.68
2023-05-19T03:26:33.826Z,243.28
2023-05-19T03:27:33.876Z,241.86
2023-05-19T03:28:33.929Z,241.14
2023-05-19T03:29:34.001Z,243.47
2023-05-19T03:30:34.304Z,241.75
2023-05-19T03:31:34.118Z,243.40
2023-05-19T03:32:34.246Z,244.95
2023-05-19T03:33:34.293Z,242.31
2023-05-19T03:34:34.322Z,243.26
2023-05-19T03:35:34.454Z,241.28
2023-05-19T03:36:34.428Z,242.45
2023-05-19T03:37:34.477Z,246.39
2023-05-19T03:38:34.532Z,246.12
2023-05-19T03:39:34.617Z,246.45
2023-05-19T03:40:34.917Z,242.22
2023-05-19T03:41:34.709Z,245.35
2023-05-19T03:42:34.779Z,250.00
2023-05-19T03:43:34.854Z,244.23
2023-05-19T03:44:34.906Z,243.38
2023-05-19T03:45:35.018Z,244.40
2023-05-19T03:46:35.027Z,245.06
2023-05-19T03:47:35.098Z,248.60
2023-05-19T03:48:35.116Z,247.17
2023-05-19T03:49:35.175Z,245.42
2023-05-19T03:50:35.256Z,246.35
2023-05-19T03:51:35.312Z,248.11
2023-05-19T03:52:35.377Z,246.85
2023-05-19T03:53:35.401Z,244.31
2023-05-19T03:54:35.471Z,246.01
2023-05-19T03:55:35.579Z,248.77
2023-05-19T03:56:35.580Z,244.63
2023-05-19T03:57:35.673Z,245.91
2023-05-19T03:58:35.742Z,246.36
2023-05-19T03:59:35.792Z,242.88
2023-05-19T04:00:36.014Z,244.29
2023-05-19T04:01:35.890Z,247.90
2023-05-19T04:02:36.008Z,245.65
2023-05-19T04:03:36.035Z,250.00
2023-05-19T04:04:36.064Z,246.93
2023-05-19T04:05:36.122Z,247.49
2023-05-19T04:06:36.150Z,247.63
2023-05-19T04:07:36.251Z,245.49
2023-05-19T04:08:36.315Z,248.20
2023-05-19T04:09:36.355Z,248.04
2023-05-19T04:10:36.395Z,245.41
2023-05-19T04:11:36.414Z,246.45
2023-05-19T04:12:36.509Z,247.53
2023-05-19T04:13:36.558Z,245.22
2023-05-19T04:14:36.602Z,249.73
2023-05-19T04:15:36.749Z,246.44
2023-05-19T04:16:36.749Z,246.14
2023-05-19T04:17:36.812Z,247.23
2023-05-19T04:18:36.865Z,247.42
2023-05-19T04:19:36.888Z,250.00
2023-05-19T04:20:36.941Z,245.16
2023-05-19T04:21:36.989Z,245.37
2023-05-19T04:22:37.038Z,245.49
2023-05-19T04:23:37.089Z,247.57
2023-05-19T04:24:37.132Z,244.93
2023-05-19T04:25:37.527Z,243.44
2023-05-19T04:26:37.227Z,245.12
2023-05-19T04:27:37.293Z,244.56
2023-05-19T04:28:37.345Z,241.05
2023-05-19T04:29:37.372Z,240.29
2023-05-19T04:30:37.387Z,239.09
2023-05-19T04:31:37.505Z,239.93
2023-05-19T04:32:37.754Z,241.25
2023-05-19T04:33:37.511Z,243.12
2023-05-19T04:34:37.506Z,240.58
2023-05-19T04:35:37.514Z,239.32
2023-05-19T04:36:37.553Z,238.48
2023-05-19T04:37:37.592Z,239.05
2023-05-19T04:38:37.688Z,238.51
2023-05-19T04:39:37.713Z,238.41
2023-05-19T04:40:37.768Z,239.11
2023-05-19T04:41:37.828Z,238.07
2023-05-19T04:42:37.843Z,236.42
2023-05-19T04:43:37.903Z,236.19
2023-05-19T04:44:37.955Z,235.38
2023-05-19T04:45:38.003Z,235.10
2023-05-19T04:46:38.113Z,231.30
2023-05-19T04:47:38.162Z,230.29
2023-05-19T04:48:38.134Z,231.35
2023-05-19T04:49:38.190Z,232.58
2023-05-19T04:50:38.274Z,231.53
2023-05-19T04:51:38.311Z,227.38
2023-05-19T04:52:38.345Z,228.72
2023-05-19T04:53:38.420Z,231.56
2023-05-19T04:54:38.476Z,230.65
2023-05-19T04:55:38.489Z,230.56
2023-05-19T04:56:38.580Z,230.01
2023-05-19T04:57:38.634Z,227.20
2023-05-19T04:58:39.700Z,225.34
2023-05-19T04:59:38.662Z,225.45
2023-05-19T05:00:46.104Z,226.08
2023-05-19T05:01:38.679Z,226.73
2023-05-19T05:02:38.706Z,227.19
2023-05-19T05:03:38.818Z,228.20
2023-05-19T05:04:38.681Z,228.51
2023-05-19T05:05:38.665Z,230.75
2023-05-19T05:06:38.648Z,227.03
2023-05-19T05:07:38.643Z,227.88
2023-05-19T05:08:38.634Z,224.21
2023-05-19T05:09:38.637Z,224.14
2023-05-19T05:10:38.612Z,225.17
2023-05-19T05:11:38.581Z,224.25
2023-05-19T05:12:38.592Z,223.52
2023-05-19T05:13:38.594Z,228.17
2023-05-19T05:14:38.564Z,227.43
2023-05-19T05:15:38.575Z,218.97
2023-05-19T05:16:38.623Z,215.42
2023-05-19T05:17:38.559Z,216.18
2023-05-19T05:18:38.561Z,209.73
2023-05-19T05:19:38.608Z,211.99
2023-05-19T05:20:38.647Z,217.59
2023-05-19T05:21:38.725Z,218.62
2023-05-19T05:22:38.807Z,213.77
2023-05-19T05:23:38.828Z,208.95
2023-05-19T05:24:38.909Z,206.07
2023-05-19T05:25:38.960Z,211.18
2023-05-19T05:26:39.032Z,208.65
2023-05-19T05:27:39.105Z,203.93
2023-05-19T05:28:39.183Z,203.03
2023-05-19T05:29:39.211Z,205.01
2023-05-19T05:30:39.286Z,204.19
2023-05-19T05:31:39.378Z,202.48
2023-05-19T05:32:39.484Z,200.45
2023-05-19T05:33:39.483Z,199.47
2023-05-19T05:34:39.486Z,200.52
2023-05-19T05:35:39.559Z,195.36
2023-05-19T05:36:39.651Z,202.34
2023-05-19T05:37:39.699Z,199.18
2023-05-19T05:38:39.723Z,198.77
2023-05-19T05:39:39.803Z,195.03
2023-05-19T05:40:39.873Z,183.93
2023-05-19T05:41:39.892Z,187.93
2023-05-19T05:42:39.940Z,191.36
2023-05-19T05:43:40.006Z,181.90
2023-05-19T05:44:40.055Z,190.67
2023-05-19T05:45:47.099Z,197.33
2023-05-19T05:46:40.037Z,197.61
2023-05-19T05:47:40.081Z,198.12
2023-05-19T05:48:40.018Z,194.13
2023-05-19T05:49:40.042Z,196.78
2023-05-19T05:50:40.024Z,193.28
2023-05-19T05:51:40.707Z,190.87
2023-05-19T05:52:40.007Z,185.02
2023-05-19T05:53:40.025Z,185.15
2023-05-19T05:54:40.001Z,188.71
2023-05-19T05:55:40.037Z,198.77
2023-05-19T05:56:40.003Z,197.91
2023-05-19T05:57:39.982Z,194.29
2023-05-19T05:58:40.002Z,186.97
2023-05-19T05:59:39.963Z,186.83
2023-05-19T06:00:39.974Z,198.18
2023-05-19T06:01:39.993Z,200.84
2023-05-19T06:02:40.064Z,200.13
2023-05-19T06:03:40.043Z,192.84
2023-05-19T06:04:39.949Z,190.92
2023-05-19T06:05:39.991Z,198.24
2023-05-19T06:06:39.955Z,203.24
2023-05-19T06:07:39.917Z,206.87
2023-05-19T06:08:39.892Z,195.82
2023-05-19T06:09:39.915Z,205.83
2023-05-19T06:10:39.914Z,186.77
2023-05-19T06:11:39.877Z,193.07
2023-05-19T06:12:39.905Z,209.39
2023-05-19T06:13:39.989Z,211.72
2023-05-19T06:14:39.867Z,202.51
2023-05-19T06:15:39.897Z,204.31
2023-05-19T06:16:40.056Z,200.26
2023-05-19T06:17:40.647Z,203.47
2023-05-19T06:18:39.908Z,210.94
2023-05-19T06:19:39.838Z,214.36
2023-05-19T06:20:39.851Z,212.39
2023-05-19T06:21:39.844Z,210.21
2023-05-19T06:22:39.825Z,210.86
2023-05-19T06:23:39.822Z,214.89
2023-05-19T06:24:39.845Z,227.07
2023-05-19T06:25:39.823Z,233.56
2023-05-19T06:26:39.814Z,230.15
2023-05-19T06:27:39.807Z,229.46
2023-05-19T06:28:39.784Z,228.71
2023-05-19T06:29:39.798Z,237.79
2023-05-19T06:30:39.764Z,236.42
2023-05-19T06:31:39.794Z,234.88
2023-05-19T06:32:39.797Z,230.40
2023-05-19T06:33:39.747Z,233.92
2023-05-19T06:34:39.741Z,232.35
2023-05-19T06:35:39.768Z,236.65
2023-05-19T06:36:39.765Z,221.89
2023-05-19T06:37:39.795Z,231.04
2023-05-19T06:38:39.788Z,238.96
2023-05-19T06:39:39.818Z,245.15
2023-05-19T06:40:39.808Z,231.80
2023-05-19T06:41:39.815Z,222.86
2023-05-19T06:42:39.812Z,213.88
2023-05-19T06:43:39.796Z,215.33
2023-05-19T06:44:39.799Z,213.83
2023-05-19T06:45:39.799Z,207.72
2023-05-19T06:46:39.886Z,212.79
2023-05-19T06:47:39.862Z,205.72
2023-05-19T06:48:39.804Z,212.31
2023-05-19T06:49:39.811Z,210.72
2023-05-19T06:50:39.845Z,226.37
2023-05-19T06:51:39.832Z,220.17
2023-05-19T06:52:40.593Z,208.96
2023-05-19T06:53:39.816Z,199.80
2023-05-19T06:54:39.827Z,200.58
2023-05-19T06:55:50.708Z,196.20
2023-05-19T06:56:40.826Z,196.39
2023-05-19T06:57:39.818Z,197.32
2023-05-19T06:58:39.825Z,196.37
2023-05-19T06:59:39.798Z,186.20
2023-05-19T07:00:39.809Z,188.82
2023-05-19T07:01:39.847Z,198.75
2023-05-19T07:02:39.834Z,191.60
2023-05-19T07:03:39.860Z,177.41
2023-05-19T07:04:39.766Z,183.72
2023-05-19T07:05:39.804Z,198.66
2023-05-19T07:06:39.752Z,208.77
2023-05-19T07:07:39.739Z,211.60
2023-05-19T07:08:39.753Z,219.94
2023-05-19T07:09:39.745Z,201.31
2023-05-19T07:10:39.745Z,196.58
2023-05-19T07:11:39.729Z,201.63
2023-05-19T07:12:39.729Z,200.42
2023-05-19T07:13:39.738Z,183.93
2023-05-19T07:14:39.737Z,197.27
2023-05-19T07:15:39.699Z,206.70
2023-05-19T07:16:39.713Z,202.17
2023-05-19T07:17:39.727Z,197.99
2023-05-19T07:18:39.691Z,187.92
2023-05-19T07:19:39.683Z,193.31
2023-05-19T07:20:39.694Z,198.69
2023-05-19T07:21:39.668Z,194.76
2023-05-19T07:22:39.653Z,185.95
2023-05-19T07:23:39.686Z,182.62
2023-05-19T07:24:39.640Z,179.63
2023-05-19T07:25:39.657Z,182.44
2023-05-19T07:26:39.640Z,187.88
2023-05-19T07:27:39.641Z,194.18
2023-05-19T07:28:41.426Z,189.63
2023-05-19T07:29:39.641Z,167.77
2023-05-19T07:30:39.581Z,160.73
2023-05-19T07:31:39.629Z,169.44
2023-05-19T07:32:39.638Z,148.67
2023-05-19T07:33:39.581Z,149.66
2023-05-19T07:34:39.611Z,152.51
2023-05-19T07:35:39.588Z,137.76
2023-05-19T07:36:39.633Z,154.66
2023-05-19T07:37:39.622Z,165.31
2023-05-19T07:38:39.635Z,158.49
2023-05-19T07:39:39.610Z,166.16
2023-05-19T07:40:39.622Z,166.62
2023-05-19T07:41:39.629Z,178.60
2023-05-19T07:42:39.630Z,159.92
2023-05-19T07:43:39.589Z,164.02
2023-05-19T07:44:39.638Z,159.03
2023-05-19T07:45:39.636Z,145.79
2023-05-19T07:46:39.701Z,152.34
2023-05-19T07:47:39.705Z,168.74
2023-05-19T07:48:39.678Z,162.88
2023-05-19T07:49:39.636Z,142.59
2023-05-19T07:50:39.684Z,142.53
2023-05-19T07:51:39.689Z,122.20
2023-05-19T07:52:39.631Z,104.06
2023-05-19T07:53:39.653Z,114.22
2023-05-19T07:54:39.636Z,105.30
2023-05-19T07:55:39.655Z,97.61
2023-05-19T07:56:39.721Z,126.04
2023-05-19T07:57:39.674Z,138.22
2023-05-19T07:58:39.673Z,160.63
2023-05-19T07:59:39.643Z,168.87
2023-05-19T08:00:39.691Z,171.58
2023-05-19T08:01:39.653Z,146.83
2023-05-19T08:02:39.801Z,134.83
2023-05-19T08:03:39.825Z,130.73
2023-05-19T08:04:39.706Z,134.36
2023-05-19T08:05:39.677Z,148.96
2023-05-19T08:06:39.691Z,144.88
2023-05-19T08:07:39.707Z,135.82
2023-05-19T08:08:39.707Z,128.48
2023-05-19T08:09:39.689Z,152.78
2023-05-19T08:10:39.725Z,162.36
2023-05-19T08:11:39.735Z,157.38
2023-05-19T08:12:39.733Z,150.10
2023-05-19T08:13:39.709Z,133.72
2023-05-19T08:14:39.763Z,125.95
2023-05-19T08:15:39.767Z,142.60
2023-05-19T08:16:39.770Z,148.41
2023-05-19T08:17:39.773Z,133.76
2023-05-19T08:18:39.745Z,130.08
2023-05-19T08:19:39.734Z,142.81
2023-05-19T08:20:39.742Z,129.16
2023-05-19T08:21:39.740Z,127.95
2023-05-19T08:22:39.716Z,127.19
2023-05-19T08:23:39.714Z,137.93
2023-05-19T08:24:39.720Z,145.07
2023-05-19T08:25:39.728Z,136.87
2023-05-19T08:26:39.791Z,122.90
2023-05-19T08:27:39.902Z,108.85
2023-05-19T08:28:39.891Z,104.99
2023-05-19T08:29:39.964Z,102.23
2023-05-19T08:30:39.992Z,115.59
2023-05-19T08:31:40.114Z,97.54
2023-05-19T08:32:40.138Z,95.29
2023-05-19T08:33:40.147Z,109.60
2023-05-19T08:34:40.238Z,128.62
2023-05-19T08:35:40.327Z,134.28
2023-05-19T08:36:40.308Z,141.28
2023-05-19T08:37:40.353Z,134.55
2023-05-19T08:38:40.375Z,131.68
2023-05-19T08:39:40.396Z,108.39
2023-05-19T08:40:40.403Z,106.33
2023-05-19T08:41:40.464Z,117.38
2023-05-19T08:42:40.489Z,125.33
2023-05-19T08:43:40.566Z,133.75
2023-05-19T08:44:40.579Z,138.32
2023-05-19T08:45:40.632Z,146.63
2023-05-19T08:46:40.771Z,151.24
2023-05-19T08:47:40.662Z,144.88
2023-05-19T08:48:40.725Z,131.84
2023-05-19T08:49:40.720Z,123.52
2023-05-19T08:50:40.757Z,134.21
2023-05-19T08:51:40.788Z,141.95
2023-05-19T08:52:40.843Z,142.34
2023-05-19T08:53:40.961Z,128.41
2023-05-19T08:54:40.880Z,133.26
2023-05-19T08:55:40.922Z,117.63
2023-05-19T08:56:40.974Z,126.91
2023-05-19T08:57:40.997Z,142.23
2023-05-19T08:58:41.000Z,132.17
2023-05-19T08:59:41.014Z,122.34
2023-05-19T09:00:41.068Z,118.97
2023-05-19T09:01:41.040Z,131.56
2023-05-19T09:02:50.502Z,130.67
2023-05-19T09:03:42.946Z,130.93
2023-05-19T09:04:41.078Z,131.63
2023-05-19T09:05:41.074Z,134.26
2023-05-19T09:06:41.048Z,143.64
2023-05-19T09:07:41.030Z,143.05
2023-05-19T09:08:41.045Z,153.77
2023-05-19T09:09:41.124Z,158.78
2023-05-19T09:10:41.026Z,156.93
2023-05-19T09:11:41.020Z,159.58
2023-05-19T09:12:41.008Z,144.78
2023-05-19T09:13:41.028Z,148.32
2023-05-19T09:14:40.988Z,141.84
2023-05-19T09:15:40.991Z,152.36
2023-05-19T09:16:41.046Z,148.86
2023-05-19T09:17:41.121Z,150.78
2023-05-19T09:18:41.253Z,152.31
2023-05-19T09:19:41.218Z,152.97
2023-05-19T09:20:41.276Z,152.08
2023-05-19T09:21:41.342Z,152.12
2023-05-19T09:22:41.391Z,150.46
2023-05-19T09:23:41.460Z,154.25
2023-05-19T09:24:41.535Z,140.31
2023-05-19T09:25:41.539Z,143.03
2023-05-19T09:26:41.683Z,139.93
2023-05-19T09:27:41.694Z,140.79
2023-05-19T09:28:41.757Z,144.40
2023-05-19T09:29:41.817Z,149.97
2023-05-19T09:30:41.854Z,145.27
2023-05-19T09:31:41.955Z,151.60
2023-05-19T09:32:42.041Z,151.69
2023-05-19T09:33:45.254Z,150.92
2023-05-19T09:34:42.073Z,149.85
2023-05-19T09:35:42.055Z,159.56
2023-05-19T09:36:42.060Z,160.16
2023-05-19T09:37:42.025Z,154.48
2023-05-19T09:38:42.024Z,160.34
2023-05-19T09:39:42.021Z,146.16
2023-05-19T09:40:41.991Z,151.58
2023-05-19T09:41:41.972Z,153.53
2023-05-19T09:42:42.000Z,151.87
2023-05-19T09:43:42.016Z,144.67
2023-05-19T09:44:41.972Z,144.99
2023-05-19T09:45:41.961Z,146.60
2023-05-19T09:46:42.045Z,147.46
2023-05-19T09:47:42.005Z,143.97
2023-05-19T09:48:41.950Z,145.07
2023-05-19T09:49:41.937Z,147.31
2023-05-19T09:50:41.957Z,145.01
2023-05-19T09:51:41.892Z,146.19
2023-05-19T09:52:41.913Z,146.18
2023-05-19T09:53:41.931Z,140.72
2023-05-19T09:54:41.920Z,147.88
2023-05-19T09:55:41.895Z,156.68
2023-05-19T09:56:41.899Z,154.52
2023-05-19T09:57:41.914Z,157.04
2023-05-19T09:58:41.906Z,159.16
2023-05-19T09:59:41.870Z,157.28
2023-05-19T10:01:30.612Z,25.00
2023-05-19T10:02:30.604Z,25.00
2023-05-19T10:03:30.567Z,25.00
2023-05-19T10:04:30.607Z,25.00
2023-05-19T10:05:30.558Z,25.00
2023-05-19T10:06:30.564Z,25.00
2023-05-19T10:07:30.525Z,30.81
2023-05-19T10:08:30.855Z,33.69
2023-05-19T10:09:30.527Z,28.25
2023-05-19T10:10:30.520Z,29.25
2023-05-19T10:11:30.515Z,30.07
2023-05-19T10:12:30.534Z,42.11
2023-05-19T10:13:30.530Z,50.34
2023-05-19T10:14:30.488Z,43.28
2023-05-19T10:15:30.572Z,44.56
2023-05-19T10:16:30.539Z,37.02
2023-05-19T10:17:30.522Z,41.56
2023-05-19T10:18:30.471Z,36.37
2023-05-19T10:19:30.459Z,33.71
2023-05-19T10:20:30.607Z,25.00
2023-05-19T10:21:30.432Z,25.44
2023-05-19T10:22:30.435Z,25.41
2023-05-19T10:23:30.531Z,25.11
2023-05-19T10:24:30.408Z,27.41
2023-05-19T10:25:30.504Z,33.93
2023-05-19T10:26:30.409Z,33.36
2023-05-19T10:27:30.408Z,37.06
2023-05-19T10:28:30.399Z,42.91
2023-05-19T10:29:30.378Z,44.17
2023-05-19T10:30:30.372Z,43.47
2023-05-19T10:31:30.425Z,36.33
2023-05-19T10:32:30.463Z,39.45
2023-05-19T10:33:30.377Z,39.01
2023-05-19T10:34:30.361Z,47.28
2023-05-19T10:35:32.012Z,49.75
2023-05-19T10:36:30.336Z,58.11
2023-05-19T10:37:30.342Z,51.89
2023-05-19T10:38:30.355Z,53.59
2023-05-19T10:39:30.299Z,50.04
2023-05-19T10:40:30.306Z,50.97
2023-05-19T10:41:30.305Z,54.40
2023-05-19T10:42:30.318Z,57.12
2023-05-19T10:43:30.286Z,64.41
2023-05-19T10:44:30.282Z,59.43
2023-05-19T10:45:30.372Z,50.25
2023-05-19T10:46:30.436Z,49.24
2023-05-19T10:47:30.437Z,51.67
2023-05-19T10:48:30.459Z,50.47
2023-05-19T10:49:30.482Z,52.84
2023-05-19T10:50:30.507Z,32.46
2023-05-19T10:51:30.498Z,37.25
2023-05-19T10:52:30.544Z,36.42
2023-05-19T10:53:30.589Z,43.27
2023-05-19T10:54:30.647Z,42.44
2023-05-19T10:55:30.889Z,40.55
2023-05-19T10:56:30.726Z,44.14
2023-05-19T10:57:30.724Z,43.93
2023-05-19T10:58:30.754Z,42.91
2023-05-19T10:59:30.771Z,49.27
2023-05-19T11:00:30.883Z,42.17
2023-05-19T11:01:30.905Z,46.63
2023-05-19T11:02:30.924Z,41.93
2023-05-19T11:03:30.945Z,47.97
2023-05-19T11:04:30.945Z,55.65
2023-05-19T11:05:31.309Z,54.57
2023-05-19T11:06:30.989Z,53.47
2023-05-19T11:07:31.031Z,51.04
2023-05-19T11:08:31.024Z,53.16
2023-05-19T11:09:40.082Z,50.30
2023-05-19T11:10:32.080Z,50.51
2023-05-19T11:11:32.624Z,50.70
2023-05-19T11:12:31.062Z,50.50
2023-05-19T11:13:31.035Z,54.16
2023-05-19T11:14:31.030Z,58.67
2023-05-19T11:15:31.200Z,58.03
2023-05-19T11:16:31.098Z,56.35
2023-05-19T11:17:32.696Z,61.78
2023-05-19T11:18:31.006Z,55.10
2023-05-19T11:19:31.028Z,60.57
2023-05-19T11:20:30.986Z,59.67
2023-05-19T11:21:31.051Z,61.73
2023-05-19T11:22:30.964Z,55.41
2023-05-19T11:23:32.738Z,59.62
2023-05-19T11:24:31.053Z,60.24
2023-05-19T11:25:31.176Z,62.48
2023-05-19T11:26:31.069Z,57.71
2023-05-19T11:27:31.225Z,60.40
2023-05-19T11:28:31.098Z,63.30
2023-05-19T11:29:32.332Z,65.88
2023-05-19T11:30:31.144Z,72.47
2023-05-19T11:31:31.222Z,75.12
2023-05-19T11:32:31.259Z,68.18
2023-05-19T11:33:31.234Z,70.41
2023-05-19T11:34:31.254Z,66.96
2023-05-19T11:35:33.239Z,65.29
2023-05-19T11:36:31.269Z,64.91
2023-05-19T11:37:31.267Z,68.42
2023-05-19T11:38:31.230Z,70.80
2023-05-19T11:39:31.251Z,70.64
2023-05-19T11:40:31.291Z,70.61
2023-05-19T11:41:31.214Z,67.48
2023-05-19T11:42:31.208Z,70.40
2023-05-19T11:43:31.195Z,70.02
2023-05-19T11:44:31.201Z,71.89
2023-05-19T11:45:31.405Z,75.89
2023-05-19T11:46:31.250Z,79.55
2023-05-19T11:47:36.182Z,76.52
2023-05-19T11:48:32.176Z,77.15
2023-05-19T11:49:31.212Z,78.38
2023-05-19T11:50:31.215Z,78.40
2023-05-19T11:51:31.165Z,81.98
2023-05-19T11:52:31.182Z,86.61
2023-05-19T11:53:32.232Z,82.19
2023-05-19T11:54:31.161Z,74.10
2023-05-19T11:55:31.135Z,79.86
2023-05-19T11:56:31.119Z,83.24
2023-05-19T11:57:31.135Z,82.28
2023-05-19T11:58:31.142Z,72.72
2023-05-19T11:59:31.755Z,71.42
2023-05-19T12:00:31.108Z,75.09
2023-05-19T12:01:31.110Z,74.00
2023-05-19T12:02:31.161Z,76.63
2023-05-19T12:03:31.195Z,80.07
2023-05-19T12:04:31.164Z,85.53
2023-05-19T12:05:33.606Z,82.48
2023-05-19T12:06:31.184Z,90.12
2023-05-19T12:07:31.173Z,81.95
2023-05-19T12:08:31.147Z,77.33
2023-05-19T12:09:31.137Z,80.82
2023-05-19T12:10:31.126Z,71.70
2023-05-19T12:11:31.143Z,69.40
2023-05-19T12:12:31.133Z,67.12
2023-05-19T12:13:31.085Z,69.25
2023-05-19T12:14:31.083Z,66.25
2023-05-19T12:15:31.427Z,56.19
2023-05-19T12:16:32.627Z,67.06
2023-05-19T12:17:31.071Z,62.88
2023-05-19T12:18:31.067Z,56.14
2023-05-19T12:19:31.078Z,51.93
2023-05-19T12:20:31.041Z,43.69
2023-05-19T12:21:33.612Z,45.24
2023-05-19T12:22:31.094Z,49.61
2023-05-19T12:23:31.081Z,48.16
2023-05-19T12:24:31.058Z,28.83
2023-05-19T12:25:31.309Z,32.94
2023-05-19T12:26:31.060Z,29.10
2023-05-19T12:27:32.518Z,29.22
2023-05-19T12:28:31.034Z,29.43
2023-05-19T12:29:30.998Z,28.48
2023-05-19T12:30:31.191Z,26.29
2023-05-19T12:31:31.063Z,32.20
2023-05-19T12:32:31.037Z,33.68
2023-05-19T12:33:32.062Z,40.15
2023-05-19T12:34:30.992Z,42.65